Weather observations for the past three days for
Spartanburg Memorial
Metric (Imperial)
Date Time (edt) Wind (kph) Vis. (km) Weather Sky Cond. Temperature (ºC) Relative Humidity Wind Chill (°C) Heat Index (°C) Pressure Precipitation (cm)
Air Dwpt 6 hour altimeter (cm) sea level (mb) 1 hr 3 hr 6 hr
Max. Min.
07 16:15 W 22 G 31 16.09 Mostly Cloudy SCT041 SCT048 BKN060 25 13 47% 26 75.59 0.0
07 15:55 SW 13 16.09 Mostly Cloudy BKN041 BKN050 25 15 54% 26 75.59 0.0
07 15:35 SW 19 G 28 16.09 Mostly Cloudy SCT039 BKN047 BKN050 25 15 54% 26 75.62 0.0
07 15:15 SW 7 16.09 Mostly Cloudy SCT039 BKN044 BKN050 24 15 57% 25 75.62 0.0
07 14:55 SW 11 16.09 Mostly Cloudy SCT039 BKN046 BKN060 24 15 57% 25 75.67 0.0
07 14:35 SW 9 16.09 Partly Cloudy SCT036 SCT047 24 16 61% 25 75.69 0.0
07 14:15 W 13 11.27 Partly Cloudy SCT030 SCT036 SCT043 23 15 61% 75.67 0.0
07 13:50 SW 15 16.09 Mostly Cloudy BKN028 BKN035 BKN040 23 15 61% 75.67 0.0
07 13:35 SW 15 G 28 16.09 Mostly Cloudy SCT025 BKN032 23 16 65% 75.67 0.0
07 13:15 W 13 16.09 Mostly Cloudy SCT021 BKN028 22 16 69% 75.69 0.0
07 12:55 SW 9 16.09 Partly Cloudy SCT019 SCT027 SCT110 22 16 69% 75.72 0.0
07 12:35 SW 9 16.09 Partly Cloudy SCT019 SCT026 SCT110 21 16 73% 75.74 0.0
07 12:15 SW 9 16.09 Partly Cloudy SCT014 SCT110 20 16 78% 75.74 0.0
07 11:55 W 15 16.09 Mostly Cloudy BKN012 BKN017 BKN110 19 17 88% 75.74 0.0
07 11:35 W 13 16.09 Mostly Cloudy BKN012 BKN018 18 17 94% 75.82 0.0
07 11:15 W 13 16.09 Mostly Cloudy SCT009 SCT013 BKN120 18 17 94% 75.77 0.0
07 10:55 W 7 16.09 Partly Cloudy SCT007 SCT120 18 17 94% 75.72 0.0
07 10:35 Calm 16.09 Mostly Cloudy SCT007 SCT070 BKN110 17 17 100% 75.69 0.0
07 10:15 Calm 16.09 Light Rain SCT009 BKN090 OVC110 17 16 94% 75.74 0.0
07 09:55 Calm 16.09 Light Rain SCT005 SCT050 OVC065 17 16 94% 75.79 0.0 0.15
07 09:35 SW 6 16.09 Rain SCT005 SCT014 OVC085 17 16 94% 75.84 0.0 0.08
07 09:15 Calm 16.09 Light Rain SCT003 BKN070 OVC085 17 16 94% 75.79 0.0
07 08:55 Calm 16.09 Mostly Cloudy SCT003 SCT034 BKN085 17 16 94% 75.77 0.0 0.05
07 08:35 Calm 16.09 Light Drizzle SCT048 OVC085 17 16 94% 75.79 0.0 0.03
07 08:15 Calm 16.09 Light Rain SCT048 BKN070 OVC085 17 16 94% 75.82 0.0 0.03
07 07:55 Calm 8.05 Rain SCT005 BKN050 OVC065 17 16 94% 75.79 0.0 0.53
07 07:35 Calm 4.02 Heavy Rain BKN005 BKN011 OVC019 17 16 94% 75.82 0.0 0.38
07 07:15 NW 11 6.44 Drizzle SCT003 BKN049 OVC055 17 16 94% 75.82 0.0
07 06:55 S 6 11.27 Rain SCT005 BKN011 OVC060 17 16 94% 75.74 0.0 0.36
07 06:35 Calm 4.83 Rain BKN003 BKN008 OVC022 17 16 94% 75.79 0.0 0.33
07 06:15 NW 7 11.27 Heavy Rain OVC003 17 16 94% 75.82 0.0 0.03
07 05:55 Calm 16.09 Light Rain OVC003 17 16 94% 75.77 0.0 0.05
07 05:35 SW 7 16.09 Overcast BKN003 BKN008 OVC050 17 16 94% 75.77 0.0 0.05
07 05:15 S 6 16.09 Rain BKN005 BKN010 OVC050 17 16 94% 75.77 0.0 0.05
07 04:55 Calm 6.44 Rain SCT003 BKN015 OVC050 17 16 94% 75.74 0.0 0.56
07 04:35 Calm 6.44 Heavy Rain BKN003 BKN009 OVC033 17 16 94% 75.82 0.0 0.25
07 04:15 Calm 11.27 Rain SCT003 BKN007 OVC017 17 16 94% 75.84 0.0 0.05
07 03:55 SW 6 16.09 Light Rain SCT003 SCT010 OVC017 17 16 94% 75.84 0.0 0.25
07 03:35 Calm 11.27 Rain BKN015 OVC020 17 16 94% 75.82 0.0 0.2
07 03:15 Calm 11.27 Rain SCT004 OVC015 17 16 94% 75.87 0.0 0.08
07 02:55 Calm 6.44 Rain BKN004 BKN017 OVC037 17 16 94% 75.84 0.0 0.74
07 02:35 Calm 6.44 Rain BKN004 BKN015 OVC034 17 16 94% 75.87 0.0 0.53
07 02:15 Calm 4.83 Heavy Rain SCT004 BKN030 OVC065 17 16 94% 75.95 0.0 0.25
07 01:55 Calm 8.05 Rain SCT004 BKN037 OVC080 17 16 94% 75.9 0.0 1.52
07 01:35 NW 6 4.83 Thunderstorm Heavy Rain BKN004 OVC017 17 16 94% 76 0.0 1.3
07 01:15 NW 7 2.82 Thunderstorm Heavy Rain BKN004 OVC014 17 16 94% 76.02 0.0 0.79
07 00:55 Calm 11.27 Rain BKN005 BKN022 OVC048 17 16 94% 75.95 0.0 0.13
07 00:35 Calm 11.27 Light Rain NULL 17 16 94% 75.95 0.0 0.1
07 00:15 S 6 16.09 Rain BKN004 OVC033 17 16 94% 76 0.0
06 23:35 SE 7 16.09 Light Rain BKN004 OVC045 17 16 94% 75.97 0.0
06 23:15 SE 7 16.09 Mostly Cloudy SCT002 BKN048 BKN070 17 16 94% 75.97 0.0
06 22:55 SE 9 16.09 Overcast BKN044 OVC055 17 17 100% 75.97 0.0 0.33
06 22:35 NE 6 16.09 Light Rain SCT036 OVC042 18 17 94% 76.02 0.0 0.33
06 22:15 SE 9 6.44 Heavy Rain BKN037 BKN042 OVC047 18 17 94% 76.05 0.0 0.23
06 21:55 Calm 8.05 Rain SCT025 BKN037 OVC043 18 17 94% 76.1 0.0 0.58
06 21:35 W 9 8.05 Thunderstorm Heavy Rain NULL 18 17 94% 76.12 0.0 0.33
06 21:15 NE 7 11.27 Heavy Rain SCT037 SCT046 OVC060 18 17 94% 76.02 0.0 0.05
06 20:55 NE 7 16.09 Light Rain BKN060 OVC070 18 17 94% 75.95 0.0 0.03
06 20:35 N 9 16.09 Overcast SCT040 BKN048 OVC060 18 16 88% 75.95 0.0 0.03
06 20:15 NW 13 16.09 Light Rain SCT034 BKN040 OVC055 18 17 94% 76.02 0.0 0.03
06 19:55 W 24 11.27 Rain BKN034 BKN041 OVC060 19 17 88% 76.02 0.0 0.15
06 19:35 NW 26 G 33 16.09 Overcast SCT036 BKN060 OVC070 22 16 69% 75.95 0.0
06 19:15 Calm 16.09 Overcast BKN070 OVC095 23 16 65% 75.9 0.0
06 18:55 Calm 16.09 Mostly Cloudy SCT060 BKN095 23 16 65% 75.9 0.0
06 18:35 Calm 16.09 Partly Cloudy SCT047 SCT060 SCT095 23 16 65% 75.92 0.0
06 18:15 SW 6 16.09 Light Rain SCT042 SCT049 BKN095 24 16 61% 25 75.92 0.0
06 17:55 Calm 16.09 Mostly Cloudy BKN085 24 16 61% 25 75.92 0.0
06 17:35 W 7 16.09 Partly Cloudy SCT085 25 15 54% 26 75.95 0.0
06 17:15 W 11 16.09 Partly Cloudy SCT041 SCT080 25 15 54% 26 75.95 0.0
06 16:55 W 17 16.09 Mostly Cloudy BKN041 BKN095 25 15 54% 26 75.95 0.0
06 16:35 W 17 16.09 Partly Cloudy SCT039 SCT095 25 15 54% 26 75.97 0.0
06 16:15 W 19 16.09 Partly Cloudy SCT036 SCT043 25 15 54% 26 76 0.0
06 15:55 SW 20 G 31 16.09 Partly Cloudy SCT034 25 15 54% 26 76 0.0
06 15:35 SW 22 16.09 Mostly Cloudy BKN032 25 15 54% 26 76.02 0.0
06 15:15 W 22 G 37 16.09 Partly Cloudy SCT032 25 15 54% 26 76.05 0.0
06 14:55 SW 17 G 39 16.09 Partly Cloudy SCT030 SCT037 25 15 54% 26 76.05 0.0
06 14:35 SW 13 16.09 Partly Cloudy SCT030 23 15 61% 76.05 0.0
06 14:15 SW 19 G 30 16.09 Partly Cloudy SCT030 23 14 57% 76.05 0.0
06 13:55 SW 15 16.09 Fair CLR 23 14 57% 76.05 0.0
06 13:35 SW 17 16.09 Mostly Cloudy BKN032 BKN048 BKN050 22 14 61% 76.05 0.0
06 13:15 W 13 16.09 Thunderstorm Light Rain in Vicinity BKN032 BKN040 OVC075 21 15 69% 76.17 0.0
06 12:55 SW 17 16.09 Mostly Cloudy SCT032 BKN060 BKN075 21 13 60% 76.17 0.0
06 12:35 SW 17 G 28 16.09 Light Drizzle SCT030 SCT038 BKN060 21 13 60% 76.17 0.0
06 12:15 SW 13 16.09 Mostly Cloudy BKN032 21 13 60% 76.17 0.0
06 11:55 SW 13 16.09 Overcast OVC032 21 13 60% 76.15 0.0
06 11:35 SW 15 16.09 Overcast OVC032 21 13 60% 76.12 0.0
06 11:15 SW 11 16.09 Overcast OVC036 21 13 60% 76.12 0.0
06 10:55 SW 15 G 26 16.09 Mostly Cloudy BKN038 20 13 64% 76.12 0.0
06 10:35 SW 7 16.09 Partly Cloudy SCT040 20 13 64% 76.12 0.0
06 10:15 SW 6 16.09 Partly Cloudy SCT042 20 13 64% 76.1 0.0
06 09:50 Calm 16.09 Partly Cloudy SCT090 19 13 68% 76.1 0.0
06 09:35 SW 9 16.09 Mostly Cloudy SCT080 BKN090 19 13 68% 76.12 0.0
06 09:15 SW 9 16.09 Mostly Cloudy SCT080 BKN090 18 13 73% 76.1 0.0
06 08:55 SW 9 16.09 Partly Cloudy SCT100 18 12 68% 76.1 0.0
06 08:35 S 7 16.09 Mostly Cloudy BKN100 17 12 73% 76.07 0.0
06 08:15 SW 6 16.09 Overcast OVC090 17 12 73% 76.1 0.0
06 07:50 Calm 16.09 Overcast OVC080 16 12 77% 76.12 0.0
06 07:35 Calm 16.09 Overcast OVC080 16 12 77% 76.1 0.0
06 07:15 Calm 16.09 Partly Cloudy SCT055 SCT080 16 11 72% 76.07 0.0
06 06:55 Calm 16.09 Partly Cloudy SCT055 16 11 72% 76.05 0.0
06 06:35 Calm 16.09 Partly Cloudy SCT055 16 11 72% 76.02 0.0
06 06:15 Calm 16.09 Fair CLR 16 11 72% 76 0.0
06 05:55 S 6 16.09 Fair CLR 16 11 72% 76 0.0
06 05:35 S 6 16.09 Fair CLR 17 11 68% 76.02 0.0
06 05:15 Calm 16.09 Fair CLR 17 11 68% 76 0.0
06 04:55 S 6 16.09 Partly Cloudy SCT065 SCT095 17 11 68% 76.05 0.0
06 04:35 S 9 16.09 Overcast BKN065 BKN075 OVC095 17 11 68% 76.05 0.0
06 04:15 S 7 16.09 Overcast BKN065 OVC095 17 11 68% 76.05 0.0
06 03:55 SW 7 16.09 Overcast BKN065 OVC095 17 11 68% 76.07 0.0
06 03:35 Calm 16.09 Overcast OVC095 17 11 68% 76.05 0.0
06 03:15 S 7 16.09 Overcast OVC095 17 12 73% 76.05 0.0
06 02:55 SW 7 16.09 Overcast OVC095 18 12 68% 76.07 0.0
06 02:35 SW 11 16.09 Overcast OVC095 17 11 68% 76.07 0.0
06 02:15 S 9 16.09 Mostly Cloudy BKN095 17 11 68% 76.05 0.0
06 01:55 S 7 16.09 Mostly Cloudy BKN095 18 11 64% 76.07 0.0
06 01:35 S 7 16.09 Mostly Cloudy BKN095 18 11 64% 76.1 0.0
06 01:15 S 6 16.09 Fair CLR 18 11 64% 76.1 0.0
06 00:55 S 6 16.09 Fair CLR 18 10 60% 76.1 0.0
06 00:35 S 9 16.09 Fair CLR 18 9 56% 76.07 0.0
06 00:15 S 9 16.09 Fair CLR 19 8 49% 76.07 0.0
05 23:55 S 7 16.09 Fair CLR 18 8 52% 76.07 0.0
05 23:35 Calm 16.09 Fair CLR 19 8 49% 76.05 0.0
05 23:15 Calm 16.09 Fair CLR 19 8 49% 76.07 0.0
05 22:55 Calm 16.09 Fair CLR 19 8 49% 76.07 0.0
05 22:35 Calm 16.09 Fair CLR 21 8 43% 76.05 0.0
05 22:15 S 6 16.09 Partly Cloudy SCT120 21 8 43% 76.05 0.0
05 21:55 S 6 16.09 Mostly Cloudy BKN120 21 8 43% 76.05 0.0
05 21:35 Calm 16.09 Fair CLR 21 8 43% 76.05 0.0
05 21:15 Calm 16.09 Fair CLR 21 8 43% 76.05 0.0
05 20:55 Calm 16.09 Fair CLR 21 8 43% 76.05 0.0
05 20:35 Calm 16.09 Fair CLR 22 7 38% 76.05 0.0
05 20:15 Calm 16.09 Fair CLR 22 7 38% 76.05 0.0
05 19:55 Calm 16.09 Fair CLR 23 6 33% 76.02 0.0
05 19:35 S 9 16.09 Fair CLR 24 6 31% 25 76.02 0.0
05 19:15 SW 13 16.09 Fair CLR 25 6 30% 25 76.02 0.0
05 18:55 S 7 16.09 Fair CLR 25 6 30% 25 76.02 0.0
05 18:35 SW 13 G 26 16.09 Partly Cloudy SCT075 25 5 28% 25 76.05 0.0
05 18:10 SW 13 G 26 16.09 Partly Cloudy SCT075 26 6 28% 26 76.02 0.0
05 17:55 S 11 16.09 Fair CLR 26 5 26% 26 76.02 0.0
05 17:35 S 15 16.09 Fair CLR 26 6 28% 26 76.05 0.0
05 17:15 S 11 16.09 Fair CLR 25 5 28% 25 76.05 0.0
05 16:50 SW 17 G 28 16.09 Fair CLR 26 5 26% 26 76.05 0.0
05 16:35 SW 17 G 26 16.09 Partly Cloudy SCT080 25 4 26% 25 76.07 0.0
05 16:15 SW 15 G 30 16.09 Partly Cloudy SCT080 26 5 26% 26 76.1 0.0
05 15:35 SW 11 G 28 16.09 Fair CLR 26 4 24% 26 76.15 0.0
05 15:15 SW 11 16.09 Fair CLR 25 5 28% 25 76.15 0.0
05 14:55 W 17 G 28 16.09 Fair CLR 25 5 28% 25 76.15 0.0
05 14:35 S 13 16.09 Fair CLR 25 3 24% 25 76.17 0.0
05 14:15 SW 17 G 28 16.09 Fair CLR 25 4 26% 25 76.23 0.0
05 13:55 SW 15 G 28 16.09 Fair CLR 25 3 24% 25 76.25 0.0
05 13:35 W 11 16.09 Fair CLR 24 5 29% 25 76.25 0.0
05 13:15 SW 11 G 28 16.09 Fair CLR 24 5 29% 25 76.25 0.0
05 12:55 W 15 G 30 16.09 Fair CLR 23 5 31% 76.25 0.0
05 12:35 SW 13 16.09 Fair CLR 23 7 36% 76.25 0.0
05 12:10 SW 9 16.09 Fair CLR 23 8 38% 76.28 0.0
05 11:55 S 9 16.09 Fair CLR 22 8 41% 76.28 0.0
05 11:35 S 9 16.09 Fair CLR 21 9 46% 76.33 0.0
05 11:15 SW 7 16.09 Fair CLR 21 10 50% 76.33 0.0
05 10:55 S 9 16.09 Fair CLR 20 10 53% 76.33 0.0
05 10:35 SW 6 16.09 Fair CLR 19 10 56% 76.3 0.0
05 10:15 SW 9 16.09 Fair CLR 18 10 60% 76.3 0.0
05 09:55 SW 7 16.09 Fair CLR 17 10 64% 76.28 0.0
05 09:35 SW 9 16.09 Fair CLR 17 10 64% 76.28 0.0
05 09:15 SW 7 16.09 Fair CLR 16 10 68% 76.28 0.0
05 08:55 SW 6 16.09 Fair CLR 15 10 72% 76.28 0.0
05 08:35 W 9 16.09 Fair CLR 15 9 68% 76.28 0.0
05 08:15 SW 6 16.09 Fair CLR 13 8 72% 76.28 0.0
05 07:55 Calm 16.09 Fair CLR 13 8 72% 76.25 0.0
05 07:35 Calm 16.09 Fair CLR 11 8 82% 76.25 0.0
05 07:15 Calm 16.09 Fair CLR 10 7 82% 76.23 0.0
05 06:55 Calm 16.09 Fair CLR 9 7 87% 76.23 0.0
05 06:35 Calm 16.09 Fair CLR 8 7 93% 76.23 0.0
05 06:15 SW 6 16.09 Fair CLR 8 6 87% 76.23 0.0
05 05:55 Calm 16.09 Fair CLR 10 7 82% 76.23 0.0
05 05:35 Calm 16.09 Fair CLR 11 7 77% 76.2 0.0
05 05:15 SW 6 16.09 Fair CLR 11 7 77% 76.2 0.0
05 04:55 Calm 16.09 Fair CLR 11 7 77% 76.2 0.0
05 04:35 SW 6 16.09 Fair CLR 11 6 72% 76.17 0.0
05 04:15 Calm 16.09 Fair CLR 12 6 67% 76.17 0.0
05 03:55 Calm 16.09 Fair CLR 11 6 72% 76.17 0.0
05 03:35 Calm 16.09 Fair CLR 11 6 72% 76.15 0.0
05 03:15 Calm 16.09 Fair CLR 12 6 67% 76.15 0.0
05 02:55 Calm 16.09 Fair CLR 13 6 63% 76.15 0.0
05 02:35 SW 6 16.09 Fair CLR 13 6 63% 76.15 0.0
05 02:15 SW 7 16.09 Fair CLR 14 6 59% 76.15 0.0
05 01:55 S 6 16.09 Fair CLR 14 5 55% 76.15 0.0
05 01:35 Calm 16.09 Fair CLR 14 5 55% 76.17 0.0
05 01:15 Calm 16.09 Fair CLR 13 6 63% 76.17 0.0
05 00:55 SW 6 16.09 Fair CLR 13 5 59% 76.17 0.0
05 00:35 Calm 16.09 Fair CLR 13 5 59% 76.17 0.0
05 00:15 Calm 16.09 Fair CLR 15 5 51% 76.17 0.0
04 23:55 Calm 16.09 Fair CLR 15 5 51% 76.17 0.0
04 23:35 Calm 16.09 Fair CLR 15 5 51% 76.2 0.0
04 23:15 Calm 16.09 Fair CLR 17 5 45% 76.2 0.0
04 22:55 Calm 16.09 Fair CLR 17 4 42% 76.2 0.0
04 22:35 S 6 16.09 Fair CLR 17 5 45% 76.17 0.0
04 22:15 S 6 16.09 Fair CLR 16 5 48% 76.17 0.0
04 21:55 Calm 16.09 Fair CLR 16 5 48% 76.15 0.0
04 21:35 Calm 16.09 Fair CLR 17 5 45% 76.15 0.0
04 21:15 Calm 16.09 Fair CLR 18 4 40% 76.12 0.0
04 20:55 Calm 16.09 Fair CLR 20 3 33% 76.12 0.0
04 20:35 SW 6 16.09 Fair CLR 20 3 33% 76.1 0.0
04 20:15 SW 6 16.09 Fair CLR 21 2 29% 76.1 0.0
04 19:55 SW 9 16.09 Fair CLR 22 2 27% 76.07 0.0
04 19:35 SW 11 16.09 Fair CLR 23 2 25% 76.07 0.0
04 19:15 SW 9 16.09 Fair CLR 23 3 27% 76.05 0.0
04 18:50 SW 11 16.09 Fair CLR 24 2 24% 25 76.05 0.0
04 18:35 S 7 16.09 Fair CLR 24 2 24% 25 76.07 0.0
04 18:15 S 6 16.09 Fair CLR 24 2 24% 25 76.07 0.0
04 17:55 S 9 16.09 Fair CLR 25 1 21% 25 76.07 0.0
04 17:35 SW 11 16.09 Fair CLR 25 1 21% 25 76.07 0.0
04 17:15 SW 7 16.09 Fair CLR 25 1 21% 25 76.07 0.0
04 16:55 S 9 16.09 Fair CLR 25 0 19% 25 76.07 0.0
04 16:35 S 9 16.09 Fair CLR 25 0 19% 25 76.1 0.0
Date Time (edt) Wind (kph) Vis. (km) Weather Sky Cond. Air Dwpt Max. Min. Relative Humidity Wind Chill (°C) Heat Index (°C) altimeter (cm) sea level (mb) 1 hr 3 hr 6 hr
6 hour
Temperature (ºC) Pressure Precipitation (cm)